Fillmore, California
Current Conditions -  °F | °C
As of 8:55 AM on Thursday 30 Oct 2014 (Local Time) from KCMA Reporting Station
Clear Clear  
Wind Chill: 64°   Ceiling: Unl
Heat Index: 64°   Visibility: 10mi
Dew Point: 45°   Wind: 3mph
Humidity: 50%   Direction: 50°NE
Pressure: 29.99"   Gusts: NA
Location:  34.4°N, 118.91°W
Report Text: KCMA 301555Z 05003KT 10SM CLR 18/07 A2999 RMK AO2 SLP163 T01780072
Loading
Personal Weather Stations






























Interactive Weather Map
Tropical Storm Tracking
New forecast layout! Learn more

10-Day Weather Forecast

Advertisements
Track Severe Weather on mobile